createdAt,value
2017-09-18T00:00:28.394Z,5.35
2017-09-18T00:02:54.751Z,5.60
2017-09-18T00:05:21.074Z,5.53
2017-09-18T00:07:47.704Z,5.60
2017-09-18T00:10:14.073Z,5.35
2017-09-18T00:12:40.414Z,5.05
2017-09-18T00:15:06.796Z,5.22
2017-09-18T00:17:33.153Z,4.07
2017-09-18T00:20:00.245Z,4.85
2017-09-18T00:22:26.583Z,4.45
2017-09-18T00:24:53.245Z,5.28
2017-09-18T00:27:20.339Z,5.12
2017-09-18T00:29:46.664Z,5.28
2017-09-18T00:32:13.062Z,5.85
2017-09-18T00:34:40.149Z,4.90
2017-09-18T00:37:06.502Z,5.28
2017-09-18T00:39:32.859Z,5.50
2017-09-18T00:41:59.970Z,5.28
2017-09-18T00:44:26.356Z,4.97
2017-09-18T00:46:53.764Z,5.78
2017-09-18T00:49:20.137Z,4.60
2017-09-18T00:51:46.541Z,4.82
2017-09-18T00:54:12.967Z,4.35
2017-09-18T00:56:39.347Z,5.28
2017-09-18T00:59:05.673Z,5.35
2017-09-18T01:01:32.053Z,4.55
2017-09-18T01:03:58.441Z,3.65
2017-09-18T01:06:24.811Z,4.82
2017-09-18T01:08:51.540Z,3.85
2017-09-18T01:11:17.909Z,3.90
2017-09-18T01:13:44.996Z,4.80
2017-09-18T01:16:11.411Z,4.68
2017-09-18T01:18:37.745Z,5.65
2017-09-18T01:21:04.151Z,4.45
2017-09-18T01:23:34.284Z,5.40
2017-09-18T01:26:00.836Z,5.25
2017-09-18T01:28:27.165Z,5.15
2017-09-18T01:30:53.810Z,4.30
2017-09-18T01:33:20.153Z,5.37
2017-09-18T01:35:46.503Z,5.28
2017-09-18T01:38:12.873Z,4.80
2017-09-18T01:40:39.211Z,4.72
2017-09-18T01:43:05.626Z,5.30
2017-09-18T01:45:31.980Z,4.43
2017-09-18T01:47:58.352Z,5.45
2017-09-18T01:50:25.539Z,4.10
2017-09-18T01:52:58.579Z,4.55
2017-09-18T01:55:26.178Z,4.12
2017-09-18T01:57:52.502Z,4.72
2017-09-18T02:00:18.893Z,3.90
2017-09-18T02:02:45.228Z,4.20
2017-09-18T02:05:11.578Z,4.40
2017-09-18T02:07:38.694Z,4.87
2017-09-18T02:10:05.097Z,4.30
2017-09-18T02:12:31.468Z,4.72
2017-09-18T02:14:58.930Z,4.15
2017-09-18T02:17:26.014Z,4.60
2017-09-18T02:19:52.353Z,4.90
2017-09-18T02:22:18.723Z,4.78
2017-09-18T02:24:45.089Z,4.72
2017-09-18T02:27:11.511Z,3.42
2017-09-18T02:29:37.877Z,4.28
2017-09-18T02:32:04.240Z,6.47
2017-09-18T02:34:30.560Z,6.10
2017-09-18T02:36:56.883Z,6.22
2017-09-18T02:39:23.243Z,4.85
2017-09-18T02:41:50.662Z,4.28
2017-09-18T02:44:17.014Z,4.12
2017-09-18T02:46:43.371Z,3.60
2017-09-18T02:49:09.799Z,3.30
2017-09-18T02:51:36.098Z,3.62
2017-09-18T02:54:02.501Z,4.25
2017-09-18T02:56:28.881Z,3.50
2017-09-18T02:58:55.220Z,3.67
2017-09-18T03:01:21.560Z,3.40
2017-09-18T03:03:48.179Z,4.17
2017-09-18T03:06:15.258Z,3.93
2017-09-18T03:08:41.621Z,4.50
2017-09-18T03:11:07.979Z,5.50
2017-09-18T03:13:34.314Z,4.33
2017-09-18T03:16:01.407Z,4.63
2017-09-18T03:18:27.787Z,3.87
2017-09-18T03:20:54.890Z,4.20
2017-09-18T03:23:21.362Z,4.37
2017-09-18T03:25:48.080Z,3.40
2017-09-18T03:28:15.190Z,3.50
2017-09-18T03:30:41.543Z,3.90
2017-09-18T03:33:07.890Z,3.40
2017-09-18T03:35:34.226Z,3.07
2017-09-18T03:38:00.579Z,3.33
2017-09-18T03:40:26.949Z,3.40
2017-09-18T03:42:53.328Z,3.23
2017-09-18T03:45:20.447Z,3.80
2017-09-18T03:47:47.062Z,3.00
2017-09-18T03:50:13.450Z,3.30
2017-09-18T03:52:39.833Z,3.13
2017-09-18T03:55:06.209Z,2.67
2017-09-18T03:57:32.550Z,3.17
2017-09-18T03:59:58.942Z,3.70
2017-09-18T04:02:31.610Z,3.93
2017-09-18T04:04:58.804Z,4.63
2017-09-18T04:07:25.141Z,4.20
2017-09-18T04:09:51.553Z,4.27
2017-09-18T04:12:17.937Z,3.77
2017-09-18T04:14:44.320Z,3.47
2017-09-18T04:17:10.629Z,4.05
2017-09-18T04:19:37.722Z,3.95
2017-09-18T04:22:04.074Z,4.85
2017-09-18T04:24:30.399Z,4.05
2017-09-18T04:26:56.956Z,4.70
2017-09-18T04:29:24.062Z,4.40
2017-09-18T04:31:50.395Z,4.43
2017-09-18T04:34:16.810Z,4.70
2017-09-18T04:36:43.167Z,4.10
2017-09-18T04:39:09.543Z,3.90
2017-09-18T04:41:35.930Z,4.50
2017-09-18T04:44:02.586Z,4.23
2017-09-18T04:46:28.924Z,3.67
2017-09-18T04:48:56.096Z,3.20
2017-09-18T04:51:22.473Z,3.93
2017-09-18T04:53:48.808Z,3.20
2017-09-18T04:56:15.193Z,3.40
2017-09-18T04:58:41.554Z,3.40
2017-09-18T05:01:07.925Z,4.63
2017-09-18T05:03:35.010Z,3.87
2017-09-18T05:06:01.672Z,4.80
2017-09-18T05:08:28.010Z,4.10
2017-09-18T05:10:54.340Z,4.10
2017-09-18T05:13:20.711Z,4.30
2017-09-18T05:15:47.080Z,3.60
2017-09-18T05:18:13.420Z,3.00
2017-09-18T05:20:39.781Z,2.47
2017-09-18T05:23:07.140Z,3.10
2017-09-18T05:25:34.259Z,2.53
2017-09-18T05:28:00.620Z,3.50
2017-09-18T05:30:26.974Z,2.95
2017-09-18T05:32:53.338Z,2.90
2017-09-18T05:35:19.760Z,2.72
2017-09-18T05:37:46.099Z,3.30
2017-09-18T05:40:12.847Z,3.70
2017-09-18T05:42:39.180Z,4.43
2017-09-18T05:45:05.529Z,5.43
2017-09-18T05:47:32.637Z,4.75
2017-09-18T05:49:59.095Z,4.90
2017-09-18T05:52:26.165Z,3.87
2017-09-18T05:54:52.520Z,4.22
2017-09-18T05:57:19.607Z,4.32
2017-09-18T05:59:46.723Z,5.10
2017-09-18T06:02:13.075Z,5.03
2017-09-18T06:04:39.461Z,5.25
2017-09-18T06:07:05.813Z,5.05
2017-09-18T06:09:32.226Z,4.20
2017-09-18T06:11:58.569Z,5.60
2017-09-18T06:14:24.927Z,5.30
2017-09-18T06:16:51.335Z,5.62
2017-09-18T06:19:17.724Z,4.82
2017-09-18T06:21:44.122Z,5.68
2017-09-18T06:24:10.467Z,4.93
2017-09-18T06:26:36.858Z,6.35
2017-09-18T06:29:03.224Z,12.70
2017-09-18T06:31:30.689Z,9.13
2017-09-18T06:33:57.091Z,9.65
2017-09-18T06:36:23.452Z,8.30
2017-09-18T06:38:49.880Z,6.65
2017-09-18T06:41:16.248Z,4.78
2017-09-18T06:43:42.643Z,4.95
2017-09-18T06:46:09.002Z,4.03
2017-09-18T06:48:35.397Z,3.60
2017-09-18T06:51:02.532Z,4.10
2017-09-18T06:53:29.703Z,4.82
2017-09-18T06:55:56.054Z,5.05
2017-09-18T06:58:22.446Z,5.22
2017-09-18T07:00:49.572Z,4.87
2017-09-18T07:03:15.896Z,5.05
2017-09-18T07:05:42.283Z,4.62
2017-09-18T07:08:08.664Z,3.87
2017-09-18T07:10:35.063Z,3.78
2017-09-18T07:13:01.475Z,4.00
2017-09-18T07:15:27.881Z,4.00
2017-09-18T07:17:55.016Z,4.17
2017-09-18T07:20:22.104Z,5.18
2017-09-18T07:22:48.502Z,4.20
2017-09-18T07:25:15.664Z,3.67
2017-09-18T07:27:42.003Z,4.20
2017-09-18T07:30:08.372Z,4.63
2017-09-18T07:32:34.728Z,3.80
2017-09-18T07:35:01.133Z,3.90
2017-09-18T07:37:27.540Z,3.90
2017-09-18T07:39:53.886Z,4.60
2017-09-18T07:42:20.244Z,3.93
2017-09-18T07:44:47.390Z,3.17
2017-09-18T07:47:13.743Z,2.60
2017-09-18T07:49:40.173Z,2.50
2017-09-18T07:52:07.257Z,2.83
2017-09-18T07:54:33.945Z,2.03
2017-09-18T07:57:01.033Z,3.20
2017-09-18T07:59:27.394Z,2.83
2017-09-18T08:01:53.768Z,2.60
2017-09-18T08:04:20.096Z,1.87
2017-09-18T08:06:46.449Z,1.47
2017-09-18T08:09:12.831Z,1.40
2017-09-18T08:11:39.246Z,1.50
2017-09-18T08:14:05.588Z,1.10
2017-09-18T08:16:32.335Z,1.10
2017-09-18T08:18:58.740Z,2.00
2017-09-18T08:21:25.072Z,0.97
2017-09-18T08:23:51.422Z,0.90
2017-09-18T08:26:18.541Z,1.20
2017-09-18T08:28:44.958Z,1.30
2017-09-18T08:31:11.307Z,1.50
2017-09-18T08:33:37.657Z,1.50
2017-09-18T08:36:04.817Z,1.40
2017-09-18T08:38:32.244Z,0.73
2017-09-18T08:40:58.611Z,0.73
2017-09-18T08:43:24.992Z,0.90
2017-09-18T08:45:51.352Z,0.80
2017-09-18T08:48:18.552Z,0.93
2017-09-18T08:50:44.963Z,0.60
2017-09-18T08:53:11.343Z,0.70
2017-09-18T08:55:37.694Z,0.60
2017-09-18T08:58:04.090Z,0.67
2017-09-18T09:00:30.516Z,0.70
2017-09-18T09:02:56.954Z,0.70
2017-09-18T09:05:23.371Z,0.57
2017-09-18T09:07:50.067Z,0.67
2017-09-18T09:10:16.437Z,0.80
2017-09-18T09:12:42.832Z,0.60
2017-09-18T09:15:09.232Z,0.70
2017-09-18T09:17:35.604Z,0.60
2017-09-18T09:20:02.016Z,0.60
2017-09-18T09:22:28.368Z,0.90
2017-09-18T09:24:55.014Z,0.60
2017-09-18T09:27:21.418Z,0.77
2017-09-18T09:29:47.825Z,0.70
2017-09-18T09:32:14.958Z,0.70
2017-09-18T09:34:41.311Z,0.60
2017-09-18T09:37:08.430Z,0.80
2017-09-18T09:39:35.554Z,0.70
2017-09-18T09:42:02.001Z,0.60
2017-09-18T09:44:28.450Z,0.80
2017-09-18T09:46:55.077Z,1.20
2017-09-18T09:49:21.546Z,0.90
2017-09-18T09:51:47.923Z,0.60
2017-09-18T09:54:14.295Z,0.70
2017-09-18T09:56:41.418Z,0.73
2017-09-18T09:59:07.791Z,0.90
2017-09-18T10:01:34.124Z,0.60
2017-09-18T10:04:00.805Z,0.73
2017-09-18T10:06:27.172Z,0.60
2017-09-18T10:08:53.538Z,0.70
2017-09-18T10:11:19.913Z,0.80
2017-09-18T10:13:46.288Z,1.33
2017-09-18T10:16:12.663Z,0.60
2017-09-18T10:18:38.995Z,0.93
2017-09-18T10:21:05.363Z,0.57
2017-09-18T10:23:31.737Z,0.80
2017-09-18T10:25:58.393Z,0.80
2017-09-18T10:28:25.487Z,0.80
2017-09-18T10:30:51.861Z,0.83
2017-09-18T10:33:18.245Z,0.70
2017-09-18T10:35:44.684Z,0.93
2017-09-18T10:38:11.090Z,0.80
2017-09-18T10:40:37.477Z,0.90
2017-09-18T10:43:03.841Z,0.63
2017-09-18T10:45:30.933Z,0.83
2017-09-18T10:47:57.835Z,0.60
2017-09-18T10:50:24.275Z,0.50
2017-09-18T10:52:50.629Z,0.50
2017-09-18T10:55:16.992Z,0.60
2017-09-18T10:57:44.070Z,0.50
2017-09-18T11:00:11.152Z,0.60
2017-09-18T11:02:37.528Z,0.70
2017-09-18T11:05:04.619Z,1.10
2017-09-18T11:07:30.988Z,0.90
2017-09-18T11:09:57.743Z,1.50
2017-09-18T11:12:24.839Z,1.93
2017-09-18T11:14:51.166Z,1.00
2017-09-18T11:17:17.536Z,1.80
2017-09-18T11:19:43.888Z,0.50
2017-09-18T11:22:10.972Z,0.60
2017-09-18T11:24:37.318Z,0.60
2017-09-18T11:27:03.955Z,0.90
2017-09-18T11:29:30.334Z,0.70
2017-09-18T11:31:56.698Z,0.50
2017-09-18T11:34:23.076Z,0.40
2017-09-18T11:36:50.221Z,0.80
2017-09-18T11:39:18.465Z,0.87
2017-09-18T11:41:44.880Z,0.77
2017-09-18T11:44:11.260Z,0.77
2017-09-18T11:46:38.476Z,0.80
2017-09-18T11:49:05.158Z,0.50
2017-09-18T11:51:32.289Z,0.50
2017-09-18T11:53:58.641Z,0.50
2017-09-18T11:56:25.778Z,0.50
2017-09-18T11:58:52.903Z,0.90
2017-09-18T12:01:20.044Z,0.60
2017-09-18T12:03:46.411Z,0.60
2017-09-18T12:06:12.848Z,0.50
2017-09-18T12:08:39.226Z,0.53
2017-09-18T12:11:05.885Z,0.70
2017-09-18T12:13:32.246Z,0.77
2017-09-18T12:15:58.615Z,0.70
2017-09-18T12:18:25.530Z,0.90
2017-09-18T12:20:51.892Z,0.80
2017-09-18T12:23:18.261Z,0.90
2017-09-18T12:25:45.350Z,0.60
2017-09-18T12:28:11.743Z,1.07
2017-09-18T12:30:38.875Z,0.90
2017-09-18T12:33:06.325Z,0.80
2017-09-18T12:35:33.474Z,0.67
2017-09-18T12:37:59.854Z,0.60
2017-09-18T12:40:26.201Z,0.60
2017-09-18T12:42:52.555Z,0.60
2017-09-18T12:45:18.933Z,0.60
2017-09-18T12:47:45.272Z,0.90
2017-09-18T12:50:11.693Z,0.60
2017-09-18T12:52:38.059Z,0.80
2017-09-18T12:55:04.730Z,0.63
2017-09-18T12:57:31.840Z,0.93
2017-09-18T12:59:58.180Z,0.60
2017-09-18T13:02:24.643Z,0.70
2017-09-18T13:04:51.764Z,0.60
2017-09-18T13:07:18.915Z,0.60
2017-09-18T13:09:45.277Z,0.60
2017-09-18T13:12:11.993Z,0.60
2017-09-18T13:14:39.126Z,0.60
2017-09-18T13:17:05.649Z,0.50
2017-09-18T13:19:32.060Z,0.50
2017-09-18T13:21:58.425Z,0.70
2017-09-18T13:24:24.785Z,0.70
2017-09-18T13:26:51.896Z,0.60
2017-09-18T13:29:18.327Z,0.60
2017-09-18T13:31:44.701Z,0.60
2017-09-18T13:34:11.414Z,0.80
2017-09-18T13:36:38.554Z,0.67
2017-09-18T13:39:04.899Z,0.50
2017-09-18T13:41:32.051Z,0.60
2017-09-18T13:43:58.427Z,0.93
2017-09-18T13:46:24.881Z,0.63
2017-09-18T13:48:51.320Z,0.50
2017-09-18T13:51:17.659Z,0.50
2017-09-18T13:53:43.987Z,0.57
2017-09-18T13:56:11.126Z,0.90
2017-09-18T13:58:38.264Z,0.80
2017-09-18T14:01:04.999Z,0.63
2017-09-18T14:03:31.380Z,0.67
2017-09-18T14:05:57.763Z,0.70
2017-09-18T14:08:24.168Z,0.80
2017-09-18T14:10:50.561Z,0.60
2017-09-18T14:13:16.942Z,0.57
2017-09-18T14:15:43.320Z,0.60
2017-09-18T14:18:09.801Z,0.50
2017-09-18T14:20:36.253Z,0.60
2017-09-18T14:23:02.618Z,0.60
2017-09-18T14:25:28.990Z,0.67
2017-09-18T14:27:55.369Z,0.83
2017-09-18T14:30:22.506Z,0.90
2017-09-18T14:32:49.574Z,0.67
2017-09-18T14:35:15.969Z,0.80
2017-09-18T14:37:42.356Z,0.53
2017-09-18T14:40:08.746Z,0.87
2017-09-18T14:42:35.886Z,0.60
2017-09-18T14:45:02.614Z,1.30
2017-09-18T14:47:29.014Z,0.90
2017-09-18T14:49:55.429Z,1.10
2017-09-18T14:52:21.830Z,0.77
2017-09-18T14:54:48.267Z,0.60
2017-09-18T14:57:14.675Z,1.17
2017-09-18T14:59:41.006Z,1.37
2017-09-18T15:02:07.345Z,0.90
2017-09-18T15:04:34.536Z,0.50
2017-09-18T15:07:01.204Z,0.80
2017-09-18T15:09:27.559Z,0.70
2017-09-18T15:11:54.603Z,1.57
2017-09-18T15:14:21.706Z,1.50
2017-09-18T15:16:48.049Z,1.67
2017-09-18T15:19:14.427Z,1.03
2017-09-18T15:21:40.778Z,0.90
2017-09-18T15:24:07.170Z,0.87
2017-09-18T15:26:33.559Z,0.87
2017-09-18T15:29:00.310Z,0.90
2017-09-18T15:31:27.437Z,0.63
2017-09-18T15:33:53.810Z,0.80
2017-09-18T15:36:20.954Z,1.10
2017-09-18T15:38:48.119Z,1.00
2017-09-18T15:41:14.495Z,0.90
2017-09-18T15:43:40.885Z,0.70
2017-09-18T15:46:07.241Z,0.73
2017-09-18T15:48:33.680Z,0.77
2017-09-18T15:51:00.081Z,0.80
2017-09-18T15:53:26.425Z,0.80
2017-09-18T15:55:52.758Z,0.63
2017-09-18T15:58:19.404Z,0.90
2017-09-18T16:00:45.733Z,0.77
2017-09-18T16:03:12.085Z,0.50
2017-09-18T16:05:38.453Z,0.80
2017-09-18T16:08:04.849Z,1.10
2017-09-18T16:10:31.223Z,0.73
2017-09-18T16:12:57.626Z,1.07
2017-09-18T16:15:25.063Z,1.10
2017-09-18T16:17:51.432Z,1.30
2017-09-18T16:20:17.819Z,1.07
2017-09-18T16:22:44.239Z,1.10
2017-09-18T16:25:10.609Z,1.40
2017-09-18T16:27:37.729Z,1.00
2017-09-18T16:30:04.107Z,0.80
2017-09-18T16:32:30.815Z,1.00
2017-09-18T16:34:57.168Z,1.13
2017-09-18T16:37:24.369Z,1.00
2017-09-18T16:39:50.738Z,0.90
2017-09-18T16:42:17.815Z,0.73
2017-09-18T16:44:44.265Z,0.90
2017-09-18T16:47:10.619Z,0.73
2017-09-18T16:49:37.102Z,0.80
2017-09-18T16:52:03.476Z,1.00
2017-09-18T16:54:30.147Z,0.90
2017-09-18T16:56:56.513Z,0.80
2017-09-18T16:59:22.882Z,3.07
2017-09-18T17:01:50.020Z,1.10
2017-09-18T17:04:16.414Z,1.10
2017-09-18T17:06:42.794Z,1.20
2017-09-18T17:09:09.929Z,0.93
2017-09-18T17:11:36.357Z,1.27
2017-09-18T17:14:02.708Z,1.10
2017-09-18T17:16:30.138Z,1.23
2017-09-18T17:18:56.490Z,1.33
2017-09-18T17:21:23.597Z,1.20
2017-09-18T17:23:50.081Z,2.03
2017-09-18T17:26:17.232Z,2.87
2017-09-18T17:28:43.618Z,1.30
2017-09-18T17:31:09.993Z,1.20
2017-09-18T17:33:36.431Z,2.07
2017-09-18T17:36:02.854Z,1.37
2017-09-18T17:38:29.582Z,1.50
2017-09-18T17:40:56.665Z,1.80
2017-09-18T17:43:23.105Z,2.70
2017-09-18T17:45:49.576Z,1.73
2017-09-18T17:48:16.743Z,2.27
2017-09-18T17:50:43.931Z,2.07
2017-09-18T17:53:11.084Z,2.53
2017-09-18T17:55:37.556Z,2.40
2017-09-18T17:58:04.713Z,1.80
2017-09-18T18:00:32.276Z,1.70
2017-09-18T18:02:59.416Z,1.37
2017-09-18T18:05:26.555Z,1.27
2017-09-18T18:07:53.697Z,1.83
2017-09-18T18:10:20.876Z,1.20
2017-09-18T18:12:47.293Z,1.67
2017-09-18T18:15:13.704Z,2.17
2017-09-18T18:17:40.100Z,1.30
2017-09-18T18:20:06.538Z,2.10
2017-09-18T18:22:33.334Z,1.70
2017-09-18T18:24:59.788Z,1.33
2017-09-18T18:27:26.263Z,1.40
2017-09-18T18:29:52.744Z,2.00
2017-09-18T18:32:19.183Z,1.43
2017-09-18T18:34:45.620Z,1.67
2017-09-18T18:37:12.122Z,1.50
2017-09-18T18:39:38.956Z,2.10
2017-09-18T18:42:05.470Z,1.90
2017-09-18T18:44:31.942Z,2.00
2017-09-18T18:46:58.393Z,2.17
2017-09-18T18:49:24.870Z,2.10
2017-09-18T18:51:51.285Z,3.20
2017-09-18T18:54:17.754Z,3.00
2017-09-18T18:56:44.907Z,2.67
2017-09-18T18:59:11.318Z,3.50
2017-09-18T19:01:38.505Z,3.07
2017-09-18T19:04:04.915Z,2.93
2017-09-18T19:06:31.686Z,1.83
2017-09-18T19:08:58.073Z,2.07
2017-09-18T19:11:25.246Z,1.87
2017-09-18T19:13:52.581Z,1.60
2017-09-18T19:16:19.740Z,1.90
2017-09-18T19:18:46.257Z,1.90
2017-09-18T19:21:13.466Z,1.93
2017-09-18T19:23:39.998Z,2.00
2017-09-18T19:26:06.511Z,1.70
2017-09-18T19:28:32.937Z,2.17
2017-09-18T19:30:59.375Z,2.10
2017-09-18T19:33:25.816Z,2.37
2017-09-18T19:35:52.215Z,3.30
2017-09-18T19:38:18.622Z,2.90
2017-09-18T19:40:45.804Z,2.50
2017-09-18T19:43:12.271Z,2.70
2017-09-18T19:45:38.735Z,2.30
2017-09-18T19:48:05.888Z,3.60
2017-09-18T19:50:33.447Z,2.70
2017-09-18T19:53:00.575Z,3.50
2017-09-18T19:55:27.032Z,3.60
2017-09-18T19:57:53.472Z,3.30
2017-09-18T20:00:19.970Z,3.93
2017-09-18T20:02:47.168Z,3.50
2017-09-18T20:05:14.278Z,2.70
2017-09-18T20:07:41.539Z,2.70
2017-09-18T20:10:08.663Z,2.13
2017-09-18T20:12:35.424Z,2.23
2017-09-18T20:15:01.884Z,2.50
2017-09-18T20:17:28.226Z,1.83
2017-09-18T20:19:55.361Z,1.93
2017-09-18T20:22:21.746Z,1.50
2017-09-18T20:24:48.164Z,1.80
2017-09-18T20:27:15.357Z,1.50
2017-09-18T20:29:41.793Z,1.63
2017-09-18T20:32:08.939Z,2.10
2017-09-18T20:34:35.773Z,2.70
2017-09-18T20:37:02.139Z,2.33
2017-09-18T20:39:28.501Z,2.10
2017-09-18T20:41:54.909Z,2.95
2017-09-18T20:44:21.294Z,2.40
2017-09-18T20:46:47.698Z,4.12
2017-09-18T20:49:14.917Z,3.15
2017-09-18T20:51:41.326Z,2.90
2017-09-18T20:54:07.735Z,2.22
2017-09-18T20:56:34.096Z,3.28
2017-09-18T20:59:00.471Z,2.90
2017-09-18T21:01:27.914Z,2.95
2017-09-18T21:03:54.285Z,3.03
2017-09-18T21:06:20.666Z,2.80
2017-09-18T21:08:47.048Z,2.65
2017-09-18T21:11:13.442Z,2.58
2017-09-18T21:13:40.592Z,2.60
2017-09-18T21:16:07.697Z,3.00
2017-09-18T21:18:34.102Z,3.42
2017-09-18T21:21:00.459Z,3.35
2017-09-18T21:23:27.160Z,2.40
2017-09-18T21:25:53.523Z,2.60
2017-09-18T21:28:19.868Z,2.45
2017-09-18T21:30:46.241Z,2.45
2017-09-18T21:33:12.598Z,1.83
2017-09-18T21:35:38.973Z,2.20
2017-09-18T21:38:05.311Z,1.98
2017-09-18T21:40:32.046Z,2.00
2017-09-18T21:42:59.202Z,2.12
2017-09-18T21:45:26.303Z,2.55
2017-09-18T21:47:52.726Z,2.28
2017-09-18T21:50:19.142Z,2.50
2017-09-18T21:52:45.545Z,2.40
2017-09-18T21:55:12.686Z,2.90
2017-09-18T21:57:39.809Z,2.00
2017-09-18T22:00:06.178Z,1.70
2017-09-18T22:02:33.647Z,2.33
2017-09-18T22:05:00.028Z,2.67
2017-09-18T22:07:26.411Z,1.98
2017-09-18T22:09:52.767Z,2.30
2017-09-18T22:12:19.147Z,2.45
2017-09-18T22:14:46.249Z,2.50
2017-09-18T22:17:12.606Z,2.47
2017-09-18T22:19:39.002Z,2.30
2017-09-18T22:22:05.355Z,2.30
2017-09-18T22:24:32.062Z,3.00
2017-09-18T22:26:58.430Z,3.08
2017-09-18T22:29:24.773Z,2.33
2017-09-18T22:31:51.893Z,2.60
2017-09-18T22:34:18.273Z,3.05
2017-09-18T22:36:44.656Z,3.00
2017-09-18T22:39:11.039Z,2.70
2017-09-18T22:41:37.405Z,2.85
2017-09-18T22:44:03.782Z,2.60
2017-09-18T22:46:30.919Z,2.70
2017-09-18T22:49:04.257Z,2.95
2017-09-18T22:51:31.031Z,2.70
2017-09-18T22:53:57.378Z,3.10
2017-09-18T22:56:23.762Z,2.72
2017-09-18T22:58:50.124Z,2.87
2017-09-18T23:01:16.498Z,2.40
2017-09-18T23:03:42.888Z,2.22
2017-09-18T23:06:09.245Z,2.78
2017-09-18T23:08:35.637Z,2.53
2017-09-18T23:11:01.985Z,3.28
2017-09-18T23:13:28.701Z,2.50
2017-09-18T23:15:55.114Z,3.35
2017-09-18T23:18:21.463Z,3.30
2017-09-18T23:20:47.842Z,3.42
2017-09-18T23:23:14.205Z,2.95
2017-09-18T23:25:40.578Z,3.00
2017-09-18T23:28:07.646Z,2.60
2017-09-18T23:30:34.036Z,3.00
2017-09-18T23:33:00.373Z,2.85
2017-09-18T23:35:26.755Z,2.92
2017-09-18T23:37:53.095Z,2.40
2017-09-18T23:40:19.865Z,2.60
2017-09-18T23:42:46.986Z,3.12
2017-09-18T23:45:13.307Z,2.75
2017-09-18T23:47:39.756Z,3.00
2017-09-18T23:50:06.224Z,3.03
2017-09-18T23:52:33.338Z,3.22
2017-09-18T23:54:59.666Z,3.17
2017-09-18T23:57:26.008Z,3.45
2017-09-18T23:59:52.367Z,2.62
